Eftichia — C6ZI4 — position and weather

sailwx.info

Track history (hours):
 
Tides and Currents Weather Stations Pressure Air Temp Water Temp Dewpoint Dewpoint Depression Visibility Wind Speed Wind Dir Waves Ship Positions

Eftichia

Last reported at 2017-Feb-10 00:32 UTC. Time now 2017-Feb-22 03:51 UTC.
Position N 27°32' W 118°18'.
Warning: this ship's position is 12 days out of date.

Length 181 m; draft 6.1 m.

Type: Cargo ship. MMSI: 311033882.

Date/timePositionNaut miles runAvg speedWind from/ knotsBaromVisibWave heightAir tempDewpointWater temp
2017-Feb-10 00:32N 27°32' W 118°18'4113.1
2017-Feb-09 21:26N 27°56' W 118°54'  
2017-Feb-04 19:07N 48°11' W 125°48'611.6
2017-Feb-04 18:33N 48°16' W 125°41'1211.8
2017-Feb-04 17:33N 48°24' W 125°29'1111.3
2017-Feb-04 16:33N 48°31' W 125°15'1211.6
2017-Feb-04 15:33N 48°31' W 124°58'1211.6
2017-Feb-04 14:33N 48°30' W 124°41'1212.2
2017-Feb-04 13:33N 48°25' W 124°23'1312.6
2017-Feb-04 12:33N 48°21' W 124°06'1312.6
2017-Feb-04 11:33N 48°17' W 123°48'1212.0
2017-Feb-04 10:33N 48°16' W 123°30'9 9.4
2017-Feb-04 09:33N 48°23' W 123°20'1111.2
2017-Feb-04 08:33N 48°33' W 123°13'1110.9
2017-Feb-04 07:34N 48°44' W 123°10'8 8.3
2017-Feb-04 06:33N 48°52' W 123°06'1212.3
2017-Feb-04 05:33N 49°00' W 123°19'1111.4
2017-Feb-04 04:34N 49°11' W 123°23'1111.0
2017-Feb-04 03:34N 49°19' W 123°11'5 4.5
2017-Feb-04 02:32N 49°18' W 123°04'0 0.0
2017-Feb-04 01:32N 49°18' W 123°04'0 0.1
2017-Feb-04 00:32N 49°18' W 123°04'0 0.1
2017-Feb-03 23:32N 49°18' W 123°04'0 0.1
2017-Feb-03 22:32N 49°18' W 123°04'0 0.0
2017-Feb-03 21:32N 49°18' W 123°04'0 0.0
2017-Feb-03 20:32N 49°18' W 123°04'0 0.0
2017-Feb-03 19:32N 49°18' W 123°04'0 0.2
2017-Feb-03 18:32N 49°18' W 123°04'0 0.1
2017-Feb-03 17:32N 49°18' W 123°04'0 0.0
2017-Feb-03 16:32N 49°18' W 123°04'0 0.0
2017-Feb-03 15:32N 49°18' W 123°04'0 0.0
2017-Feb-03 14:32N 49°18' W 123°04'0 0.0
2017-Feb-03 13:32N 49°18' W 123°04'0 0.1
2017-Feb-03 12:32N 49°18' W 123°04'0 0.0
2017-Feb-03 11:32N 49°18' W 123°04'0 0.0
2017-Feb-03 10:32N 49°18' W 123°04'0 0.0
2017-Feb-03 09:32N 49°18' W 123°04'0 0.0
2017-Feb-03 08:32N 49°18' W 123°04'0 0.0
2017-Feb-03 07:32N 49°18' W 123°04'0 0.0
2017-Feb-03 06:32N 49°18' W 123°04'0 0.1
2017-Feb-03 05:32N 49°18' W 123°04'0 0.1
2017-Feb-03 04:32N 49°18' W 123°04'0 0.1
2017-Feb-03 03:32N 49°18' W 123°04'0 0.1
2017-Feb-03 02:32N 49°18' W 123°04'0 0.1
2017-Feb-03 01:32N 49°18' W 123°04'1 1.2
2017-Feb-03 00:33N 49°18' W 123°02'0 0.1
2017-Feb-02 23:32N 49°18' W 123°02'0 0.0
2017-Feb-02 22:32N 49°18' W 123°02'0 0.0
2017-Feb-02 21:32N 49°18' W 123°02'0 0.0
2017-Feb-02 20:32N 49°18' W 123°02'0 0.0
2017-Feb-02 19:32N 49°18' W 123°02'0 0.0
2017-Feb-02 18:32N 49°18' W 123°02'0 0.0
2017-Feb-02 17:32N 49°18' W 123°02'0 0.0
2017-Feb-02 16:32N 49°18' W 123°02'0 0.0
2017-Feb-02 15:32N 49°18' W 123°02'0 0.0
2017-Feb-02 14:32N 49°18' W 123°02'0 0.0
2017-Feb-02 13:32N 49°18' W 123°02'0 0.0
2017-Feb-02 12:32N 49°18' W 123°02'0 0.0
2017-Feb-02 11:32N 49°18' W 123°02'0 0.0
2017-Feb-02 10:32N 49°18' W 123°02'0 0.0
2017-Feb-02 09:32N 49°18' W 123°02'0 0.0
2017-Feb-02 08:32N 49°18' W 123°02'0 0.0
2017-Feb-02 07:32N 49°18' W 123°02'0 0.0
2017-Feb-02 06:32N 49°18' W 123°02'0 0.0
2017-Feb-02 05:32N 49°18' W 123°02'0 0.0
2017-Feb-02 04:32N 49°18' W 123°02'0 0.0
2017-Feb-02 03:32N 49°18' W 123°02'0 0.0
2017-Feb-02 02:32N 49°18' W 123°02'0 0.0
2017-Feb-02 01:32N 49°18' W 123°02'0 0.0
2017-Feb-02 00:32N 49°18' W 123°02'1 0.7
2017-Feb-01 23:33N 49°18' W 123°03'4 3.9
2017-Feb-01 22:33N 49°19' W 123°09'2 2.3
2017-Feb-01 21:33N 49°18' W 123°12'0 0.1
2017-Feb-01 20:33N 49°18' W 123°12'0 0.1
2017-Feb-01 19:33N 49°18' W 123°12'0 0.1
2017-Feb-01 18:33N 49°18' W 123°12'0 0.1
2017-Feb-01 17:33N 49°18' W 123°12'0 0.0
2017-Feb-01 16:33N 49°18' W 123°12'3 3.1
2017-Feb-01 15:33N 49°18' W 123°17'1211.6
2017-Feb-01 14:33N 49°15' W 123°34'14 6.9
2017-Feb-01 12:31N 49°10' W 123°54'0 0.0
2017-Feb-01 11:31N 49°10' W 123°54'0 0.0
2017-Feb-01 10:28N 49°10' W 123°54'0 0.0
2017-Feb-01 09:31N 49°10' W 123°54'0 0.0
2017-Feb-01 08:25N 49°10' W 123°54'0 0.0
2017-Feb-01 07:31N 49°10' W 123°54'0 0.1
2017-Feb-01 06:31N 49°10' W 123°54'0 0.1
2017-Feb-01 05:31N 49°10' W 123°54'0 0.1
2017-Feb-01 04:31N 49°10' W 123°54'0 0.1
2017-Feb-01 03:28N 49°10' W 123°54'0 0.1
2017-Feb-01 02:31N 49°10' W 123°54'0 0.0
2017-Feb-01 01:25N 49°10' W 123°54'0 0.0
2017-Feb-01 00:25N 49°10' W 123°54'0 0.0
2017-Jan-31 23:31N 49°10' W 123°54'0 0.0
2017-Jan-31 22:31N 49°10' W 123°54'0 0.0
2017-Jan-31 21:19N 49°10' W 123°54'0 0.0
2017-Jan-31 20:28N 49°10' W 123°54'0 0.0
2017-Jan-31 19:22N 49°10' W 123°54'0 0.1
2017-Jan-31 18:28N 49°10' W 123°54'0 0.0
2017-Jan-31 17:31N 49°10' W 123°54'0 0.0
2017-Jan-31 16:31N 49°10' W 123°54'0 0.0
2017-Jan-31 15:31N 49°10' W 123°54'0 0.0
2017-Jan-31 14:16N 49°10' W 123°54'0 0.1
2017-Jan-31 13:31N 49°10' W 123°54'0 0.0
2017-Jan-31 12:31N 49°10' W 123°54'0 0.0
2017-Jan-31 11:28N 49°10' W 123°54'0 0.0
2017-Jan-31 10:31N 49°10' W 123°54'0 0.0
2017-Jan-31 09:31N 49°10' W 123°54'0 0.0
2017-Jan-31 08:31N 49°10' W 123°54'0 0.0
2017-Jan-31 07:28N 49°10' W 123°54'0 0.0
2017-Jan-31 06:28N 49°10' W 123°54'0 0.0
2017-Jan-31 05:31N 49°10' W 123°54'0 0.0
2017-Jan-31 04:31N 49°10' W 123°54'0 0.0
2017-Jan-31 03:31N 49°10' W 123°54'0 0.0
2017-Jan-31 02:31N 49°10' W 123°54'0 0.0
2017-Jan-31 01:19N 49°10' W 123°54'  
Track history (hours):
 
Tides and Currents Weather Stations Pressure Air Temp Water Temp Dewpoint Dewpoint Depression Visibility Wind Speed Wind Dir Waves Ship Positions

Eftichia

Last reported at 2017-Feb-10 00:32 UTC. Time now 2017-Feb-22 03:51 UTC.
Position N 27°32' W 118°18'.
Warning: this ship's position is 12 days out of date.

Length 181 m; draft 6.1 m.

Type: Cargo ship. MMSI: 311033882.

Date/timePositionNaut miles runAvg speedWind from/ knotsBaromVisibWave heightAir tempDewpointWater temp
2017-Feb-10 00:32N 27°32' W 118°18'4113.1
2017-Feb-09 21:26N 27°56' W 118°54'  
2017-Feb-04 19:07N 48°11' W 125°48'611.6
2017-Feb-04 18:33N 48°16' W 125°41'1211.8
2017-Feb-04 17:33N 48°24' W 125°29'1111.3
2017-Feb-04 16:33N 48°31' W 125°15'1211.6
2017-Feb-04 15:33N 48°31' W 124°58'1211.6
2017-Feb-04 14:33N 48°30' W 124°41'1212.2
2017-Feb-04 13:33N 48°25' W 124°23'1312.6
2017-Feb-04 12:33N 48°21' W 124°06'1312.6
2017-Feb-04 11:33N 48°17' W 123°48'1212.0
2017-Feb-04 10:33N 48°16' W 123°30'9 9.4
2017-Feb-04 09:33N 48°23' W 123°20'1111.2
2017-Feb-04 08:33N 48°33' W 123°13'1110.9
2017-Feb-04 07:34N 48°44' W 123°10'8 8.3
2017-Feb-04 06:33N 48°52' W 123°06'1212.3
2017-Feb-04 05:33N 49°00' W 123°19'1111.4
2017-Feb-04 04:34N 49°11' W 123°23'1111.0
2017-Feb-04 03:34N 49°19' W 123°11'5 4.5
2017-Feb-04 02:32N 49°18' W 123°04'0 0.0
2017-Feb-04 01:32N 49°18' W 123°04'0 0.1
2017-Feb-04 00:32N 49°18' W 123°04'0 0.1
2017-Feb-03 23:32N 49°18' W 123°04'0 0.1
2017-Feb-03 22:32N 49°18' W 123°04'0 0.0
2017-Feb-03 21:32N 49°18' W 123°04'0 0.0
2017-Feb-03 20:32N 49°18' W 123°04'0 0.0
2017-Feb-03 19:32N 49°18' W 123°04'0 0.2
2017-Feb-03 18:32N 49°18' W 123°04'0 0.1
2017-Feb-03 17:32N 49°18' W 123°04'0 0.0
2017-Feb-03 16:32N 49°18' W 123°04'0 0.0
2017-Feb-03 15:32N 49°18' W 123°04'0 0.0
2017-Feb-03 14:32N 49°18' W 123°04'0 0.0
2017-Feb-03 13:32N 49°18' W 123°04'0 0.1
2017-Feb-03 12:32N 49°18' W 123°04'0 0.0
2017-Feb-03 11:32N 49°18' W 123°04'0 0.0
2017-Feb-03 10:32N 49°18' W 123°04'0 0.0
2017-Feb-03 09:32N 49°18' W 123°04'0 0.0
2017-Feb-03 08:32N 49°18' W 123°04'0 0.0
2017-Feb-03 07:32N 49°18' W 123°04'0 0.0
2017-Feb-03 06:32N 49°18' W 123°04'0 0.1
2017-Feb-03 05:32N 49°18' W 123°04'0 0.1
2017-Feb-03 04:32N 49°18' W 123°04'0 0.1
2017-Feb-03 03:32N 49°18' W 123°04'0 0.1
2017-Feb-03 02:32N 49°18' W 123°04'0 0.1
2017-Feb-03 01:32N 49°18' W 123°04'1 1.2
2017-Feb-03 00:33N 49°18' W 123°02'0 0.1
2017-Feb-02 23:32N 49°18' W 123°02'0 0.0
2017-Feb-02 22:32N 49°18' W 123°02'0 0.0
2017-Feb-02 21:32N 49°18' W 123°02'0 0.0
2017-Feb-02 20:32N 49°18' W 123°02'0 0.0
2017-Feb-02 19:32N 49°18' W 123°02'0 0.0
2017-Feb-02 18:32N 49°18' W 123°02'0 0.0
2017-Feb-02 17:32N 49°18' W 123°02'0 0.0
2017-Feb-02 16:32N 49°18' W 123°02'0 0.0
2017-Feb-02 15:32N 49°18' W 123°02'0 0.0
2017-Feb-02 14:32N 49°18' W 123°02'0 0.0
2017-Feb-02 13:32N 49°18' W 123°02'0 0.0
2017-Feb-02 12:32N 49°18' W 123°02'0 0.0
2017-Feb-02 11:32N 49°18' W 123°02'0 0.0
2017-Feb-02 10:32N 49°18' W 123°02'0 0.0
2017-Feb-02 09:32N 49°18' W 123°02'0 0.0
2017-Feb-02 08:32N 49°18' W 123°02'0 0.0
2017-Feb-02 07:32N 49°18' W 123°02'0 0.0
2017-Feb-02 06:32N 49°18' W 123°02'0 0.0
2017-Feb-02 05:32N 49°18' W 123°02'0 0.0
2017-Feb-02 04:32N 49°18' W 123°02'0 0.0
2017-Feb-02 03:32N 49°18' W 123°02'0 0.0
2017-Feb-02 02:32N 49°18' W 123°02'0 0.0
2017-Feb-02 01:32N 49°18' W 123°02'0 0.0
2017-Feb-02 00:32N 49°18' W 123°02'1 0.7
2017-Feb-01 23:33N 49°18' W 123°03'4 3.9
2017-Feb-01 22:33N 49°19' W 123°09'2 2.3
2017-Feb-01 21:33N 49°18' W 123°12'0 0.1
2017-Feb-01 20:33N 49°18' W 123°12'0 0.1
2017-Feb-01 19:33N 49°18' W 123°12'0 0.1
2017-Feb-01 18:33N 49°18' W 123°12'0 0.1
2017-Feb-01 17:33N 49°18' W 123°12'0 0.0
2017-Feb-01 16:33N 49°18' W 123°12'3 3.1
2017-Feb-01 15:33N 49°18' W 123°17'1211.6
2017-Feb-01 14:33N 49°15' W 123°34'14 6.9
2017-Feb-01 12:31N 49°10' W 123°54'0 0.0
2017-Feb-01 11:31N 49°10' W 123°54'0 0.0
2017-Feb-01 10:28N 49°10' W 123°54'0 0.0
2017-Feb-01 09:31N 49°10' W 123°54'0 0.0
2017-Feb-01 08:25N 49°10' W 123°54'0 0.0
2017-Feb-01 07:31N 49°10' W 123°54'0 0.1
2017-Feb-01 06:31N 49°10' W 123°54'0 0.1
2017-Feb-01 05:31N 49°10' W 123°54'0 0.1
2017-Feb-01 04:31N 49°10' W 123°54'0 0.1
2017-Feb-01 03:28N 49°10' W 123°54'0 0.1
2017-Feb-01 02:31N 49°10' W 123°54'0 0.0
2017-Feb-01 01:25N 49°10' W 123°54'0 0.0
2017-Feb-01 00:25N 49°10' W 123°54'0 0.0
2017-Jan-31 23:31N 49°10' W 123°54'0 0.0
2017-Jan-31 22:31N 49°10' W 123°54'0 0.0
2017-Jan-31 21:19N 49°10' W 123°54'0 0.0
2017-Jan-31 20:28N 49°10' W 123°54'0 0.0
2017-Jan-31 19:22N 49°10' W 123°54'0 0.1
2017-Jan-31 18:28N 49°10' W 123°54'0 0.0
2017-Jan-31 17:31N 49°10' W 123°54'0 0.0
2017-Jan-31 16:31N 49°10' W 123°54'0 0.0
2017-Jan-31 15:31N 49°10' W 123°54'0 0.0
2017-Jan-31 14:16N 49°10' W 123°54'0 0.1
2017-Jan-31 13:31N 49°10' W 123°54'0 0.0
2017-Jan-31 12:31N 49°10' W 123°54'0 0.0
2017-Jan-31 11:28N 49°10' W 123°54'0 0.0
2017-Jan-31 10:31N 49°10' W 123°54'0 0.0
2017-Jan-31 09:31N 49°10' W 123°54'0 0.0
2017-Jan-31 08:31N 49°10' W 123°54'0 0.0
2017-Jan-31 07:28N 49°10' W 123°54'0 0.0
2017-Jan-31 06:28N 49°10' W 123°54'0 0.0
2017-Jan-31 05:31N 49°10' W 123°54'0 0.0
2017-Jan-31 04:31N 49°10' W 123°54'0 0.0
2017-Jan-31 03:31N 49°10' W 123°54'0 0.0
2017-Jan-31 02:31N 49°10' W 123°54'0 0.0
2017-Jan-31 01:19N 49°10' W 123°54'  

Dump ship's entire track history